Pagina principală
METAR-TAF:

METAR-TAF

Aeroporturi :

Chehalis, Washington, Statele Unite ale Americii

Latitudine: 46-40-37N, longitudine: 122-58-58W, elevație: 54 m

Observații meteo curente

Raportul a fost făcut în urmă cu 30 de minute, la 22:15 UTC
Vânt 5 kt din direcții variabile
Temperatură 15°C
Umiditate 67%
Presiune 1016 hPa
Vizibilitate: 16.1 km
Nori împrăștiați la o înălțime de 5000 picior
Nori fragmentați la o înălțime de 6500 picior

METAR: KCLS 162215Z AUTO VRB05KT 10SM SCT050 BKN065 15/09 A3001 RMK AO2

Ora: 15:45 (22:45 UTC)


TAF: lipsă

Observații și prognoze meteo pentru peste 4.000 de aeroporturi (rapoarte METAR și TAF).

Stațiile disponibile sunt reprezentate pe hartă prin puncte galbene și roșii.

Țineți indicatorul mouse-ului pe punctul dorit pentru a vedea denumirea stației.

Apoi, faceți clic pentru a vedea observațiile și prognozele meteorologice.

Pentru a schimba harta: Pentru mărire, faceți clic pe butoanele verzi cu cruce neagră; pentru micșorare, pe butonul verde cu o liniuță; pentru hărți învecinate, pe săgețile verzi.


METAR-TAF: